Pullman, Michigan
Current Conditions -  °F | °C
As of 2:35 AM on Saturday 25 Oct 2014 (Local Time) from KLWA Reporting Station
Overcast Overcast  
Wind Chill: 56°   Ceiling: 4200
Heat Index: 56°   Visibility: 10mi
Dew Point: 50°   Wind: 5mph
Humidity: 79%   Direction: 200°SSW
Pressure: 29.9"   Gusts: NA
Location:  42.48°N, 86.09°W
Report Text: KLWA 250635Z AUTO 20004KT 10SM OVC042 14/10 A2990 RMK AO2 T01360100
Loading
Personal Weather Stations






























Interactive Weather Map
Tropical Storm Tracking
New forecast layout! Learn more

10-Day Weather Forecast

Advertisements
Track Severe Weather on mobile